Terminal Aerodrome Forecast
Issued by NWS

Home | Current Version | Previous Version | Graphics & Text | Print | Product List | Glossary On
Versions: 1 2 3 4 5 6 7 8 9 10 11 12 13 14 15 16 17 18 19 20
000
FTUS43 KMPX 271722
TAFRWF
TAF
KRWF 271722Z 2718/2818 14012G19KT P6SM SCT012
      TEMPO 2718/2719 BKN010
     FM272200 15013G19KT P6SM SCT250
     FM280500 15010G15KT P6SM VCTS BKN050CB
      TEMPO 2806/2810 4SM -TSRA BKN040CB
     FM281100 15011KT 4SM BR OVC007
     FM281500 16012KT 6SM BR SCT008 OVC020=

USA.gov is the U.S. government's official web portal to all federal, state and local government web resources and services.